sensor_id;sensor_type;location;lat;lon;timestamp;P1;durP1;ratioP1;P2;durP2;ratioP2
32365;SDS011;18837;46.832;16.838;2023-07-22T00:01:47;3.47;;;3.07;;
32365;SDS011;18837;46.832;16.838;2023-07-22T00:04:13;5.77;;;2.70;;
32365;SDS011;18837;46.832;16.838;2023-07-22T00:06:39;5.33;;;2.60;;
32365;SDS011;18837;46.832;16.838;2023-07-22T00:09:05;3.63;;;2.73;;
32365;SDS011;18837;46.832;16.838;2023-07-22T00:11:31;5.23;;;2.60;;
32365;SDS011;18837;46.832;16.838;2023-07-22T00:13:57;3.13;;;2.60;;
32365;SDS011;18837;46.832;16.838;2023-07-22T00:16:24;4.53;;;2.70;;
32365;SDS011;18837;46.832;16.838;2023-07-22T00:18:49;2.97;;;2.67;;
32365;SDS011;18837;46.832;16.838;2023-07-22T00:21:15;3.03;;;2.70;;
32365;SDS011;18837;46.832;16.838;2023-07-22T00:23:42;2.73;;;2.50;;
32365;SDS011;18837;46.832;16.838;2023-07-22T00:26:20;3.93;;;2.53;;
32365;SDS011;18837;46.832;16.838;2023-07-22T00:28:45;4.00;;;2.80;;
32365;SDS011;18837;46.832;16.838;2023-07-22T00:31:11;5.40;;;2.80;;
32365;SDS011;18837;46.832;16.838;2023-07-22T00:33:37;3.47;;;2.80;;
32365;SDS011;18837;46.832;16.838;2023-07-22T00:36:03;3.20;;;2.60;;
32365;SDS011;18837;46.832;16.838;2023-07-22T00:38:29;4.00;;;2.97;;
32365;SDS011;18837;46.832;16.838;2023-07-22T00:41:02;4.60;;;3.17;;
32365;SDS011;18837;46.832;16.838;2023-07-22T00:49:06;3.53;;;2.20;;
32365;SDS011;18837;46.832;16.838;2023-07-22T00:51:33;4.50;;;3.10;;
32365;SDS011;18837;46.832;16.838;2023-07-22T00:53:59;2.90;;;2.60;;
32365;SDS011;18837;46.832;16.838;2023-07-22T00:56:25;2.70;;;2.40;;
32365;SDS011;18837;46.832;16.838;2023-07-22T00:58:51;3.33;;;2.73;;
32365;SDS011;18837;46.832;16.838;2023-07-22T01:01:17;4.13;;;3.00;;
32365;SDS011;18837;46.832;16.838;2023-07-22T01:03:43;2.70;;;2.43;;
32365;SDS011;18837;46.832;16.838;2023-07-22T01:06:11;5.40;;;2.73;;
32365;SDS011;18837;46.832;16.838;2023-07-22T01:08:38;4.03;;;2.63;;
32365;SDS011;18837;46.832;16.838;2023-07-22T01:11:04;2.83;;;2.53;;
32365;SDS011;18837;46.832;16.838;2023-07-22T01:13:31;2.90;;;2.60;;
32365;SDS011;18837;46.832;16.838;2023-07-22T01:18:51;2.60;;;2.40;;
32365;SDS011;18837;46.832;16.838;2023-07-22T01:21:19;6.03;;;3.20;;
32365;SDS011;18837;46.832;16.838;2023-07-22T01:23:47;4.07;;;2.60;;
32365;SDS011;18837;46.832;16.838;2023-07-22T01:26:13;4.20;;;2.40;;
32365;SDS011;18837;46.832;16.838;2023-07-22T01:28:39;5.53;;;2.97;;
32365;SDS011;18837;46.832;16.838;2023-07-22T01:37:25;3.10;;;2.20;;
32365;SDS011;18837;46.832;16.838;2023-07-22T01:39:51;2.83;;;2.50;;
32365;SDS011;18837;46.832;16.838;2023-07-22T01:42:17;6.30;;;2.70;;
32365;SDS011;18837;46.832;16.838;2023-07-22T01:44:43;4.20;;;2.70;;
32365;SDS011;18837;46.832;16.838;2023-07-22T01:47:09;2.50;;;2.30;;
32365;SDS011;18837;46.832;16.838;2023-07-22T01:49:34;2.50;;;2.20;;
32365;SDS011;18837;46.832;16.838;2023-07-22T01:52:00;4.20;;;2.60;;
32365;SDS011;18837;46.832;16.838;2023-07-22T01:54:26;2.50;;;2.30;;
32365;SDS011;18837;46.832;16.838;2023-07-22T01:56:51;2.60;;;2.37;;
32365;SDS011;18837;46.832;16.838;2023-07-22T01:59:17;5.60;;;2.30;;
32365;SDS011;18837;46.832;16.838;2023-07-22T02:01:43;3.60;;;2.43;;
32365;SDS011;18837;46.832;16.838;2023-07-22T02:04:09;2.37;;;2.17;;
32365;SDS011;18837;46.832;16.838;2023-07-22T02:06:36;3.00;;;2.43;;
32365;SDS011;18837;46.832;16.838;2023-07-22T02:09:02;2.63;;;2.20;;
32365;SDS011;18837;46.832;16.838;2023-07-22T02:11:33;2.47;;;2.20;;
32365;SDS011;18837;46.832;16.838;2023-07-22T02:14:00;3.97;;;2.30;;
32365;SDS011;18837;46.832;16.838;2023-07-22T02:16:26;3.63;;;2.30;;
32365;SDS011;18837;46.832;16.838;2023-07-22T02:18:52;4.20;;;2.30;;
32365;SDS011;18837;46.832;16.838;2023-07-22T02:21:17;2.77;;;2.00;;
32365;SDS011;18837;46.832;16.838;2023-07-22T02:23:43;3.03;;;2.00;;
32365;SDS011;18837;46.832;16.838;2023-07-22T02:26:09;2.90;;;2.13;;
32365;SDS011;18837;46.832;16.838;2023-07-22T02:28:35;3.30;;;2.17;;
32365;SDS011;18837;46.832;16.838;2023-07-22T02:31:01;2.50;;;2.30;;
32365;SDS011;18837;46.832;16.838;2023-07-22T02:33:32;3.50;;;2.20;;
32365;SDS011;18837;46.832;16.838;2023-07-22T02:35:58;3.70;;;2.50;;
32365;SDS011;18837;46.832;16.838;2023-07-22T02:38:23;4.30;;;2.50;;
32365;SDS011;18837;46.832;16.838;2023-07-22T02:40:49;3.87;;;2.10;;
32365;SDS011;18837;46.832;16.838;2023-07-22T02:43:15;4.33;;;2.30;;
32365;SDS011;18837;46.832;16.838;2023-07-22T02:45:41;2.63;;;1.90;;
32365;SDS011;18837;46.832;16.838;2023-07-22T02:48:07;3.43;;;2.30;;
32365;SDS011;18837;46.832;16.838;2023-07-22T02:50:34;3.07;;;2.37;;
32365;SDS011;18837;46.832;16.838;2023-07-22T02:53:00;2.73;;;2.20;;
32365;SDS011;18837;46.832;16.838;2023-07-22T02:55:25;2.30;;;2.10;;
32365;SDS011;18837;46.832;16.838;2023-07-22T02:57:51;4.07;;;2.40;;
32365;SDS011;18837;46.832;16.838;2023-07-22T03:00:18;2.67;;;2.30;;
32365;SDS011;18837;46.832;16.838;2023-07-22T03:02:51;3.73;;;1.90;;
32365;SDS011;18837;46.832;16.838;2023-07-22T03:08:08;2.20;;;2.00;;
32365;SDS011;18837;46.832;16.838;2023-07-22T03:10:34;5.07;;;2.27;;
32365;SDS011;18837;46.832;16.838;2023-07-22T03:13:00;3.63;;;2.07;;
32365;SDS011;18837;46.832;16.838;2023-07-22T03:15:28;4.77;;;2.60;;
32365;SDS011;18837;46.832;16.838;2023-07-22T03:17:55;3.40;;;1.93;;
32365;SDS011;18837;46.832;16.838;2023-07-22T03:26:04;4.10;;;2.30;;
32365;SDS011;18837;46.832;16.838;2023-07-22T03:28:30;2.23;;;2.03;;
32365;SDS011;18837;46.832;16.838;2023-07-22T03:30:56;2.17;;;1.97;;
32365;SDS011;18837;46.832;16.838;2023-07-22T03:33:22;2.90;;;2.33;;
32365;SDS011;18837;46.832;16.838;2023-07-22T03:35:48;4.20;;;2.23;;
32365;SDS011;18837;46.832;16.838;2023-07-22T03:38:13;2.53;;;2.20;;
32365;SDS011;18837;46.832;16.838;2023-07-22T03:40:48;4.87;;;2.50;;
32365;SDS011;18837;46.832;16.838;2023-07-22T03:43:19;2.30;;;1.83;;
32365;SDS011;18837;46.832;16.838;2023-07-22T03:45:45;5.30;;;2.13;;
32365;SDS011;18837;46.832;16.838;2023-07-22T03:48:11;4.87;;;2.57;;
32365;SDS011;18837;46.832;16.838;2023-07-22T03:50:37;3.70;;;2.27;;
32365;SDS011;18837;46.832;16.838;2023-07-22T03:53:03;2.80;;;2.43;;
32365;SDS011;18837;46.832;16.838;2023-07-22T03:55:41;3.10;;;2.30;;
32365;SDS011;18837;46.832;16.838;2023-07-22T04:00:57;4.73;;;2.37;;
32365;SDS011;18837;46.832;16.838;2023-07-22T04:03:23;2.50;;;2.30;;
32365;SDS011;18837;46.832;16.838;2023-07-22T04:05:55;4.60;;;2.30;;
32365;SDS011;18837;46.832;16.838;2023-07-22T04:08:22;3.43;;;2.30;;
32365;SDS011;18837;46.832;16.838;2023-07-22T04:10:51;3.17;;;2.27;;
32365;SDS011;18837;46.832;16.838;2023-07-22T04:16:07;3.33;;;2.10;;
32365;SDS011;18837;46.832;16.838;2023-07-22T04:18:33;2.73;;;2.20;;
32365;SDS011;18837;46.832;16.838;2023-07-22T04:20:59;3.53;;;2.30;;
32365;SDS011;18837;46.832;16.838;2023-07-22T04:23:26;2.27;;;2.07;;
32365;SDS011;18837;46.832;16.838;2023-07-22T04:25:52;2.40;;;2.10;;
32365;SDS011;18837;46.832;16.838;2023-07-22T04:28:28;2.90;;;2.20;;
32365;SDS011;18837;46.832;16.838;2023-07-22T04:33:58;5.30;;;1.80;;
32365;SDS011;18837;46.832;16.838;2023-07-22T04:36:24;3.40;;;2.50;;
32365;SDS011;18837;46.832;16.838;2023-07-22T04:38:50;2.73;;;2.00;;
32365;SDS011;18837;46.832;16.838;2023-07-22T04:41:16;2.30;;;2.10;;
32365;SDS011;18837;46.832;16.838;2023-07-22T04:43:46;2.23;;;2.03;;
32365;SDS011;18837;46.832;16.838;2023-07-22T04:46:12;2.07;;;1.90;;
32365;SDS011;18837;46.832;16.838;2023-07-22T04:48:53;3.97;;;2.10;;
32365;SDS011;18837;46.832;16.838;2023-07-22T04:51:19;2.27;;;1.97;;
32365;SDS011;18837;46.832;16.838;2023-07-22T04:53:45;2.70;;;2.00;;
32365;SDS011;18837;46.832;16.838;2023-07-22T04:56:11;2.50;;;2.13;;
32365;SDS011;18837;46.832;16.838;2023-07-22T04:58:36;4.17;;;2.30;;
32365;SDS011;18837;46.832;16.838;2023-07-22T05:01:03;2.20;;;2.00;;
32365;SDS011;18837;46.832;16.838;2023-07-22T05:03:42;2.70;;;1.90;;
32365;SDS011;18837;46.832;16.838;2023-07-22T05:11:59;3.77;;;2.27;;
32365;SDS011;18837;46.832;16.838;2023-07-22T05:14:25;2.37;;;2.10;;
32365;SDS011;18837;46.832;16.838;2023-07-22T05:16:50;2.97;;;2.20;;
32365;SDS011;18837;46.832;16.838;2023-07-22T05:19:16;3.83;;;2.30;;
32365;SDS011;18837;46.832;16.838;2023-07-22T05:21:43;2.30;;;2.10;;
32365;SDS011;18837;46.832;16.838;2023-07-22T05:24:12;3.03;;;2.10;;
32365;SDS011;18837;46.832;16.838;2023-07-22T05:26:38;2.90;;;2.30;;
32365;SDS011;18837;46.832;16.838;2023-07-22T05:29:04;2.57;;;2.20;;
32365;SDS011;18837;46.832;16.838;2023-07-22T05:31:30;2.63;;;2.33;;
32365;SDS011;18837;46.832;16.838;2023-07-22T05:33:56;3.20;;;2.20;;
32365;SDS011;18837;46.832;16.838;2023-07-22T05:36:22;3.73;;;2.13;;
32365;SDS011;18837;46.832;16.838;2023-07-22T05:41:50;4.17;;;2.37;;
32365;SDS011;18837;46.832;16.838;2023-07-22T05:44:16;3.70;;;2.87;;
32365;SDS011;18837;46.832;16.838;2023-07-22T05:46:42;3.97;;;2.30;;
32365;SDS011;18837;46.832;16.838;2023-07-22T05:49:08;3.50;;;2.50;;
32365;SDS011;18837;46.832;16.838;2023-07-22T05:51:35;3.13;;;2.47;;
32365;SDS011;18837;46.832;16.838;2023-07-22T05:54:01;4.83;;;2.57;;
32365;SDS011;18837;46.832;16.838;2023-07-22T05:56:39;3.27;;;2.63;;
32365;SDS011;18837;46.832;16.838;2023-07-22T05:59:06;3.90;;;2.60;;
32365;SDS011;18837;46.832;16.838;2023-07-22T06:01:32;3.50;;;2.33;;
32365;SDS011;18837;46.832;16.838;2023-07-22T06:03:58;4.10;;;2.80;;
32365;SDS011;18837;46.832;16.838;2023-07-22T06:06:24;3.07;;;2.57;;
32365;SDS011;18837;46.832;16.838;2023-07-22T06:08:50;2.77;;;2.53;;
32365;SDS011;18837;46.832;16.838;2023-07-22T06:11:16;6.10;;;2.60;;
32365;SDS011;18837;46.832;16.838;2023-07-22T06:14:00;2.77;;;2.30;;
32365;SDS011;18837;46.832;16.838;2023-07-22T06:16:39;4.20;;;3.20;;
32365;SDS011;18837;46.832;16.838;2023-07-22T06:19:05;3.70;;;2.47;;
32365;SDS011;18837;46.832;16.838;2023-07-22T06:21:31;3.27;;;2.50;;
32365;SDS011;18837;46.832;16.838;2023-07-22T06:23:56;3.50;;;3.20;;
32365;SDS011;18837;46.832;16.838;2023-07-22T06:26:22;3.47;;;3.10;;
32365;SDS011;18837;46.832;16.838;2023-07-22T06:28:48;3.40;;;3.10;;
32365;SDS011;18837;46.832;16.838;2023-07-22T06:31:14;3.33;;;2.47;;
32365;SDS011;18837;46.832;16.838;2023-07-22T06:33:41;7.17;;;3.17;;
32365;SDS011;18837;46.832;16.838;2023-07-22T06:36:06;3.13;;;2.80;;
32365;SDS011;18837;46.832;16.838;2023-07-22T06:38:32;3.23;;;2.77;;
32365;SDS011;18837;46.832;16.838;2023-07-22T06:40:58;3.23;;;2.87;;
32365;SDS011;18837;46.832;16.838;2023-07-22T06:43:23;4.13;;;2.83;;
32365;SDS011;18837;46.832;16.838;2023-07-22T06:45:49;4.43;;;3.07;;
32365;SDS011;18837;46.832;16.838;2023-07-22T06:50:59;3.97;;;3.17;;
32365;SDS011;18837;46.832;16.838;2023-07-22T06:53:25;3.63;;;2.97;;
32365;SDS011;18837;46.832;16.838;2023-07-22T06:55:51;3.20;;;2.83;;
32365;SDS011;18837;46.832;16.838;2023-07-22T06:58:19;3.20;;;2.90;;
32365;SDS011;18837;46.832;16.838;2023-07-22T07:00:45;2.77;;;2.47;;
32365;SDS011;18837;46.832;16.838;2023-07-22T07:03:26;4.90;;;2.77;;
32365;SDS011;18837;46.832;16.838;2023-07-22T07:06:07;3.73;;;3.13;;
32365;SDS011;18837;46.832;16.838;2023-07-22T07:08:33;3.30;;;2.50;;
32365;SDS011;18837;46.832;16.838;2023-07-22T07:10:59;6.77;;;2.77;;
32365;SDS011;18837;46.832;16.838;2023-07-22T07:13:26;3.90;;;2.73;;
32365;SDS011;18837;46.832;16.838;2023-07-22T07:15:52;4.20;;;3.00;;
32365;SDS011;18837;46.832;16.838;2023-07-22T07:18:19;3.20;;;2.80;;
32365;SDS011;18837;46.832;16.838;2023-07-22T07:20:50;3.50;;;2.97;;
32365;SDS011;18837;46.832;16.838;2023-07-22T07:23:16;3.63;;;2.80;;
32365;SDS011;18837;46.832;16.838;2023-07-22T07:25:42;3.77;;;2.70;;
32365;SDS011;18837;46.832;16.838;2023-07-22T07:28:08;3.20;;;2.90;;
32365;SDS011;18837;46.832;16.838;2023-07-22T07:30:34;4.37;;;3.07;;
32365;SDS011;18837;46.832;16.838;2023-07-22T07:32:59;3.47;;;2.80;;
32365;SDS011;18837;46.832;16.838;2023-07-22T07:35:31;5.47;;;2.80;;
32365;SDS011;18837;46.832;16.838;2023-07-22T07:41:01;3.40;;;3.10;;
32365;SDS011;18837;46.832;16.838;2023-07-22T07:43:29;3.23;;;2.90;;
32365;SDS011;18837;46.832;16.838;2023-07-22T07:48:47;4.83;;;3.77;;
32365;SDS011;18837;46.832;16.838;2023-07-22T07:51:21;3.93;;;2.90;;
32365;SDS011;18837;46.832;16.838;2023-07-22T07:53:49;3.40;;;3.10;;
32365;SDS011;18837;46.832;16.838;2023-07-22T07:56:22;3.50;;;3.20;;
32365;SDS011;18837;46.832;16.838;2023-07-22T07:58:48;3.20;;;2.90;;
32365;SDS011;18837;46.832;16.838;2023-07-22T08:01:15;3.43;;;2.90;;
32365;SDS011;18837;46.832;16.838;2023-07-22T08:03:42;3.37;;;3.07;;
32365;SDS011;18837;46.832;16.838;2023-07-22T08:06:08;4.13;;;2.63;;
32365;SDS011;18837;46.832;16.838;2023-07-22T08:08:35;3.30;;;3.00;;
32365;SDS011;18837;46.832;16.838;2023-07-22T08:16:51;2.93;;;2.73;;
32365;SDS011;18837;46.832;16.838;2023-07-22T08:19:17;3.63;;;2.90;;
32365;SDS011;18837;46.832;16.838;2023-07-22T08:21:44;3.17;;;2.97;;
32365;SDS011;18837;46.832;16.838;2023-07-22T08:24:10;4.27;;;3.13;;
32365;SDS011;18837;46.832;16.838;2023-07-22T08:26:36;3.17;;;2.80;;
32365;SDS011;18837;46.832;16.838;2023-07-22T08:29:01;3.93;;;2.63;;
32365;SDS011;18837;46.832;16.838;2023-07-22T08:31:32;4.93;;;2.80;;
32365;SDS011;18837;46.832;16.838;2023-07-22T08:33:58;3.03;;;2.73;;
32365;SDS011;18837;46.832;16.838;2023-07-22T08:36:24;2.70;;;2.50;;
32365;SDS011;18837;46.832;16.838;2023-07-22T08:38:50;2.67;;;2.43;;
32365;SDS011;18837;46.832;16.838;2023-07-22T08:41:16;4.57;;;2.90;;
32365;SDS011;18837;46.832;16.838;2023-07-22T08:43:42;3.70;;;2.70;;
32365;SDS011;18837;46.832;16.838;2023-07-22T08:51:58;2.57;;;2.33;;
32365;SDS011;18837;46.832;16.838;2023-07-22T08:54:25;3.80;;;2.70;;
32365;SDS011;18837;46.832;16.838;2023-07-22T08:56:51;2.57;;;2.37;;
32365;SDS011;18837;46.832;16.838;2023-07-22T08:59:18;3.30;;;2.40;;
32365;SDS011;18837;46.832;16.838;2023-07-22T09:01:45;2.90;;;2.60;;
32365;SDS011;18837;46.832;16.838;2023-07-22T09:04:19;3.00;;;2.70;;
32365;SDS011;18837;46.832;16.838;2023-07-22T09:06:45;4.93;;;3.20;;
32365;SDS011;18837;46.832;16.838;2023-07-22T09:09:11;8.50;;;2.93;;
32365;SDS011;18837;46.832;16.838;2023-07-22T09:11:37;4.67;;;2.57;;
32365;SDS011;18837;46.832;16.838;2023-07-22T09:14:03;6.30;;;2.80;;
32365;SDS011;18837;46.832;16.838;2023-07-22T09:16:30;8.30;;;3.30;;
32365;SDS011;18837;46.832;16.838;2023-07-22T09:19:05;4.70;;;2.90;;
32365;SDS011;18837;46.832;16.838;2023-07-22T09:24:26;7.00;;;3.70;;
32365;SDS011;18837;46.832;16.838;2023-07-22T09:26:55;4.60;;;2.70;;
32365;SDS011;18837;46.832;16.838;2023-07-22T09:29:37;4.50;;;3.13;;
32365;SDS011;18837;46.832;16.838;2023-07-22T09:32:05;6.87;;;2.93;;
32365;SDS011;18837;46.832;16.838;2023-07-22T09:34:31;5.23;;;3.10;;
32365;SDS011;18837;46.832;16.838;2023-07-22T09:36:58;5.40;;;3.10;;
32365;SDS011;18837;46.832;16.838;2023-07-22T09:39:29;7.40;;;3.30;;
32365;SDS011;18837;46.832;16.838;2023-07-22T09:41:55;4.40;;;3.17;;
32365;SDS011;18837;46.832;16.838;2023-07-22T09:44:22;7.20;;;3.80;;
32365;SDS011;18837;46.832;16.838;2023-07-22T09:46:50;4.93;;;3.43;;
32365;SDS011;18837;46.832;16.838;2023-07-22T09:49:17;4.07;;;3.47;;
32365;SDS011;18837;46.832;16.838;2023-07-22T09:51:43;6.27;;;3.33;;
32365;SDS011;18837;46.832;16.838;2023-07-22T09:54:22;4.13;;;3.23;;
32365;SDS011;18837;46.832;16.838;2023-07-22T10:53:06;3.17;;;2.50;;
32365;SDS011;18837;46.832;16.838;2023-07-22T10:55:37;3.60;;;3.07;;
32365;SDS011;18837;46.832;16.838;2023-07-22T11:01:24;4.87;;;2.90;;
32365;SDS011;18837;46.832;16.838;2023-07-22T11:07:11;3.57;;;2.70;;
32365;SDS011;18837;46.832;16.838;2023-07-22T11:09:37;3.43;;;2.57;;
32365;SDS011;18837;46.832;16.838;2023-07-22T11:14:46;3.07;;;2.77;;
32365;SDS011;18837;46.832;16.838;2023-07-22T11:17:16;3.83;;;2.50;;
32365;SDS011;18837;46.832;16.838;2023-07-22T11:19:43;3.83;;;2.80;;
32365;SDS011;18837;46.832;16.838;2023-07-22T11:22:10;3.10;;;2.57;;
32365;SDS011;18837;46.832;16.838;2023-07-22T11:24:36;2.50;;;2.30;;
32365;SDS011;18837;46.832;16.838;2023-07-22T11:27:03;2.97;;;2.63;;
32365;SDS011;18837;46.832;16.838;2023-07-22T11:29:30;3.60;;;2.60;;
32365;SDS011;18837;46.832;16.838;2023-07-22T11:31:56;2.87;;;2.57;;
32365;SDS011;18837;46.832;16.838;2023-07-22T11:34:23;3.00;;;2.53;;
32365;SDS011;18837;46.832;16.838;2023-07-22T11:37:08;2.93;;;2.63;;
32365;SDS011;18837;46.832;16.838;2023-07-22T11:42:32;3.17;;;2.77;;
32365;SDS011;18837;46.832;16.838;2023-07-22T11:44:59;3.30;;;2.90;;
32365;SDS011;18837;46.832;16.838;2023-07-22T11:47:29;3.00;;;2.70;;
32365;SDS011;18837;46.832;16.838;2023-07-22T11:49:58;2.73;;;2.53;;
32365;SDS011;18837;46.832;16.838;2023-07-22T11:52:23;2.83;;;2.63;;
32365;SDS011;18837;46.832;16.838;2023-07-22T11:54:49;2.80;;;2.60;;
32365;SDS011;18837;46.832;16.838;2023-07-22T11:59:46;2.43;;;2.23;;
32365;SDS011;18837;46.832;16.838;2023-07-22T12:02:20;2.57;;;2.37;;
32365;SDS011;18837;46.832;16.838;2023-07-22T12:04:53;2.60;;;2.40;;
32365;SDS011;18837;46.832;16.838;2023-07-22T12:07:31;2.70;;;2.50;;
32365;SDS011;18837;46.832;16.838;2023-07-22T12:09:58;2.73;;;2.50;;
32365;SDS011;18837;46.832;16.838;2023-07-22T12:15:24;5.57;;;3.13;;
32365;SDS011;18837;46.832;16.838;2023-07-22T12:17:55;5.40;;;2.60;;
32365;SDS011;18837;46.832;16.838;2023-07-22T12:20:25;7.00;;;3.00;;
32365;SDS011;18837;46.832;16.838;2023-07-22T12:22:54;3.33;;;2.70;;
32365;SDS011;18837;46.832;16.838;2023-07-22T12:25:20;4.47;;;2.93;;
32365;SDS011;18837;46.832;16.838;2023-07-22T12:27:47;2.83;;;2.47;;
32365;SDS011;18837;46.832;16.838;2023-07-22T12:30:19;4.93;;;3.10;;
32365;SDS011;18837;46.832;16.838;2023-07-22T12:32:46;4.47;;;2.90;;
32365;SDS011;18837;46.832;16.838;2023-07-22T12:35:12;7.53;;;2.80;;
32365;SDS011;18837;46.832;16.838;2023-07-22T12:37:38;3.40;;;2.60;;
32365;SDS011;18837;46.832;16.838;2023-07-22T12:40:04;4.07;;;2.70;;
32365;SDS011;18837;46.832;16.838;2023-07-22T12:42:33;3.57;;;2.93;;
32365;SDS011;18837;46.832;16.838;2023-07-22T12:44:59;3.63;;;2.67;;
32365;SDS011;18837;46.832;16.838;2023-07-22T12:50:22;4.57;;;2.93;;
32365;SDS011;18837;46.832;16.838;2023-07-22T12:52:48;4.10;;;2.60;;
32365;SDS011;18837;46.832;16.838;2023-07-22T12:55:14;3.10;;;2.80;;
32365;SDS011;18837;46.832;16.838;2023-07-22T12:57:40;3.43;;;2.60;;
32365;SDS011;18837;46.832;16.838;2023-07-22T13:00:06;3.50;;;2.80;;
32365;SDS011;18837;46.832;16.838;2023-07-22T13:02:36;3.00;;;2.70;;
32365;SDS011;18837;46.832;16.838;2023-07-22T13:05:08;2.77;;;2.50;;
32365;SDS011;18837;46.832;16.838;2023-07-22T13:07:34;2.80;;;2.60;;
32365;SDS011;18837;46.832;16.838;2023-07-22T13:10:00;4.17;;;3.00;;
32365;SDS011;18837;46.832;16.838;2023-07-22T13:12:32;5.00;;;2.90;;
32365;SDS011;18837;46.832;16.838;2023-07-22T13:14:58;3.87;;;2.97;;
32365;SDS011;18837;46.832;16.838;2023-07-22T13:17:23;3.07;;;2.77;;
32365;SDS011;18837;46.832;16.838;2023-07-22T13:25:35;4.00;;;2.73;;
32365;SDS011;18837;46.832;16.838;2023-07-22T13:28:01;3.07;;;2.77;;
32365;SDS011;18837;46.832;16.838;2023-07-22T13:30:27;2.85;;;2.58;;
32365;SDS011;18837;46.832;16.838;2023-07-22T13:32:53;9.03;;;3.73;;
32365;SDS011;18837;46.832;16.838;2023-07-22T13:35:21;14.17;;;4.47;;
32365;SDS011;18837;46.832;16.838;2023-07-22T13:37:47;17.07;;;4.53;;
32365;SDS011;18837;46.832;16.838;2023-07-22T13:40:13;18.13;;;4.90;;
32365;SDS011;18837;46.832;16.838;2023-07-22T13:42:38;17.50;;;4.30;;
32365;SDS011;18837;46.832;16.838;2023-07-22T13:45:04;15.27;;;4.57;;
32365;SDS011;18837;46.832;16.838;2023-07-22T13:47:31;12.03;;;3.60;;
32365;SDS011;18837;46.832;16.838;2023-07-22T13:49:56;11.47;;;4.20;;
32365;SDS011;18837;46.832;16.838;2023-07-22T13:52:22;16.58;;;4.57;;
32365;SDS011;18837;46.832;16.838;2023-07-22T13:54:57;12.47;;;3.57;;
32365;SDS011;18837;46.832;16.838;2023-07-22T13:57:41;13.23;;;4.20;;
32365;SDS011;18837;46.832;16.838;2023-07-22T14:00:13;8.57;;;4.00;;
32365;SDS011;18837;46.832;16.838;2023-07-22T14:02:40;9.77;;;3.73;;
32365;SDS011;18837;46.832;16.838;2023-07-22T14:05:07;11.77;;;3.63;;
32365;SDS011;18837;46.832;16.838;2023-07-22T14:07:34;6.70;;;3.70;;
32365;SDS011;18837;46.832;16.838;2023-07-22T14:10:01;6.53;;;3.30;;
32365;SDS011;18837;46.832;16.838;2023-07-22T14:12:29;7.37;;;3.60;;
32365;SDS011;18837;46.832;16.838;2023-07-22T14:15:00;6.23;;;3.50;;
32365;SDS011;18837;46.832;16.838;2023-07-22T14:17:25;10.50;;;3.87;;
32365;SDS011;18837;46.832;16.838;2023-07-22T14:19:52;6.97;;;3.50;;
32365;SDS011;18837;46.832;16.838;2023-07-22T14:22:18;8.83;;;3.37;;
32365;SDS011;18837;46.832;16.838;2023-07-22T14:24:44;6.03;;;3.00;;
32365;SDS011;18837;46.832;16.838;2023-07-22T14:27:09;7.23;;;3.40;;
32365;SDS011;18837;46.832;16.838;2023-07-22T14:29:47;8.57;;;3.57;;
32365;SDS011;18837;46.832;16.838;2023-07-22T14:35:04;8.20;;;3.53;;
32365;SDS011;18837;46.832;16.838;2023-07-22T14:37:30;7.90;;;3.67;;
32365;SDS011;18837;46.832;16.838;2023-07-22T15:44:48;5.17;;;2.97;;
32365;SDS011;18837;46.832;16.838;2023-07-22T15:47:13;7.43;;;3.33;;
32365;SDS011;18837;46.832;16.838;2023-07-22T15:49:39;4.77;;;3.20;;
32365;SDS011;18837;46.832;16.838;2023-07-22T15:52:05;4.93;;;3.40;;
32365;SDS011;18837;46.832;16.838;2023-07-22T15:54:31;5.87;;;3.13;;
32365;SDS011;18837;46.832;16.838;2023-07-22T15:57:03;5.73;;;3.03;;
32365;SDS011;18837;46.832;16.838;2023-07-22T15:59:28;5.83;;;3.00;;
32365;SDS011;18837;46.832;16.838;2023-07-22T16:01:54;5.10;;;3.20;;
32365;SDS011;18837;46.832;16.838;2023-07-22T16:04:20;4.37;;;2.80;;
32365;SDS011;18837;46.832;16.838;2023-07-22T16:06:46;5.60;;;2.33;;
32365;SDS011;18837;46.832;16.838;2023-07-22T16:09:12;3.40;;;2.60;;
32365;SDS011;18837;46.832;16.838;2023-07-22T16:11:37;3.37;;;3.00;;
32365;SDS011;18837;46.832;16.838;2023-07-22T16:16:59;3.37;;;3.07;;
32365;SDS011;18837;46.832;16.838;2023-07-22T16:19:25;4.07;;;2.83;;
32365;SDS011;18837;46.832;16.838;2023-07-22T16:21:51;3.17;;;2.47;;
32365;SDS011;18837;46.832;16.838;2023-07-22T16:24:17;4.07;;;3.10;;
32365;SDS011;18837;46.832;16.838;2023-07-22T16:26:44;3.73;;;2.93;;
32365;SDS011;18837;46.832;16.838;2023-07-22T16:29:09;5.03;;;3.17;;
32365;SDS011;18837;46.832;16.838;2023-07-22T16:31:41;4.13;;;2.77;;
32365;SDS011;18837;46.832;16.838;2023-07-22T16:34:07;3.53;;;2.87;;
32365;SDS011;18837;46.832;16.838;2023-07-22T16:36:33;3.77;;;2.70;;
32365;SDS011;18837;46.832;16.838;2023-07-22T16:38:59;3.00;;;2.60;;
32365;SDS011;18837;46.832;16.838;2023-07-22T16:41:25;4.17;;;2.60;;
32365;SDS011;18837;46.832;16.838;2023-07-22T16:43:51;3.63;;;2.67;;
32365;SDS011;18837;46.832;16.838;2023-07-22T16:46:16;3.80;;;2.73;;
32365;SDS011;18837;46.832;16.838;2023-07-22T16:51:39;4.00;;;2.90;;
32365;SDS011;18837;46.832;16.838;2023-07-22T16:54:05;4.53;;;2.77;;
32365;SDS011;18837;46.832;16.838;2023-07-22T16:56:31;6.17;;;2.90;;
32365;SDS011;18837;46.832;16.838;2023-07-22T16:58:57;3.80;;;2.90;;
32365;SDS011;18837;46.832;16.838;2023-07-22T17:01:23;3.70;;;2.67;;
32365;SDS011;18837;46.832;16.838;2023-07-22T17:03:49;5.27;;;3.17;;
32365;SDS011;18837;46.832;16.838;2023-07-22T17:06:20;5.00;;;3.10;;
32365;SDS011;18837;46.832;16.838;2023-07-22T17:08:45;6.63;;;3.20;;
32365;SDS011;18837;46.832;16.838;2023-07-22T17:11:11;5.57;;;2.97;;
32365;SDS011;18837;46.832;16.838;2023-07-22T17:13:37;3.00;;;2.70;;
32365;SDS011;18837;46.832;16.838;2023-07-22T17:16:03;3.47;;;2.70;;
32365;SDS011;18837;46.832;16.838;2023-07-22T17:18:29;4.37;;;3.10;;
32365;SDS011;18837;46.832;16.838;2023-07-22T17:20:55;3.87;;;2.83;;
32365;SDS011;18837;46.832;16.838;2023-07-22T17:23:33;5.37;;;3.27;;
32365;SDS011;18837;46.832;16.838;2023-07-22T17:26:11;5.13;;;3.00;;
32365;SDS011;18837;46.832;16.838;2023-07-22T17:28:37;2.97;;;2.67;;
32365;SDS011;18837;46.832;16.838;2023-07-22T17:31:03;4.10;;;3.17;;
32365;SDS011;18837;46.832;16.838;2023-07-22T17:33:28;3.97;;;2.90;;
32365;SDS011;18837;46.832;16.838;2023-07-22T17:35:54;4.27;;;2.93;;
32365;SDS011;18837;46.832;16.838;2023-07-22T17:38:20;3.97;;;2.93;;
32365;SDS011;18837;46.832;16.838;2023-07-22T17:40:52;6.30;;;3.00;;
32365;SDS011;18837;46.832;16.838;2023-07-22T17:43:18;3.13;;;2.83;;
32365;SDS011;18837;46.832;16.838;2023-07-22T17:45:43;3.77;;;3.00;;
32365;SDS011;18837;46.832;16.838;2023-07-22T18:59:46;4.17;;;3.17;;
32365;SDS011;18837;46.832;16.838;2023-07-22T19:02:12;4.00;;;2.97;;
32365;SDS011;18837;46.832;16.838;2023-07-22T19:10:17;5.63;;;3.50;;
32365;SDS011;18837;46.832;16.838;2023-07-22T19:12:43;3.90;;;3.27;;
32365;SDS011;18837;46.832;16.838;2023-07-22T19:15:09;3.27;;;2.93;;
32365;SDS011;18837;46.832;16.838;2023-07-22T19:17:35;3.40;;;3.10;;
32365;SDS011;18837;46.832;16.838;2023-07-22T19:20:01;4.60;;;2.80;;
32365;SDS011;18837;46.832;16.838;2023-07-22T19:22:28;5.07;;;3.17;;
32365;SDS011;18837;46.832;16.838;2023-07-22T19:24:56;3.83;;;3.00;;
32365;SDS011;18837;46.832;16.838;2023-07-22T19:27:22;5.83;;;3.47;;
32365;SDS011;18837;46.832;16.838;2023-07-22T19:29:48;4.10;;;3.20;;
32365;SDS011;18837;46.832;16.838;2023-07-22T19:32:14;4.03;;;3.23;;